Hlavní strana
METAR-TAF:

METAR-TAF

Letiště :

Letiště Bologna

Bologna, Itálie

zeměpisná šířka: 44-32N, zeměpisná délka: 011-18E, výška: 36 m

Aktuální stav počasí

Zpráva byla vytvořena před 23 minutami, v 10:50 UTC
Severozápadní vítr 5 kt, proměnlivý mezi západním a severoseverovýchodním
Teplota 26°C
Vlhkost vzduchu 61%
Tlak 1019 hPa
Viditelnost 10 km a více
Skoro jasno ve výšce 4000 ft

METAR: LIPE 251050Z 32005KT 260V030 9999 FEW040 26/18 Q1019

Čas: 13:13 (11:13 UTC)

Předpověď počasí

Zpráva byla vytvořena před 6 hodinami a 13 minutami, v 05:00 UTC
Předpověď platná od 25 v 06 UTC do 26 v 06 UTC
vítr z různých směrů 5 kt
Viditelnost 10 km a více
Skoro jasno ve výšce 2000 ft

TAF: LIPE 250500Z 2506/2606 VRB05KT 9999 FEW020

Stav a předpovědi počasí z více než 4 000 letišť (zprávy METAR a TAF).

Červené a žluté tečky na mapě představují dostupné meteorologické stanice.

Když kurzor umístíte na tečku, zobrazí se název stanice.

Pak kliknutím zobrazíte stav a předpověď počasí.

Chcete-li změnit mapu, kliknutím na zelené tlačítko se znaménkem +mapu přiblížíte, kliknutím na zelené tlačítko se znaménkem – mapu oddálíte a kliknutím na zelené šipky přejdete na sousední mapy.


METAR-TAF: